createdAt,value
2023-04-16T00:01:59.313Z,99609.91
2023-04-16T00:04:32.627Z,99612.63
2023-04-16T00:07:03.173Z,99613.69
2023-04-16T00:09:33.586Z,99612.75
2023-04-16T00:12:04.228Z,99607.81
2023-04-16T00:14:34.575Z,99609.84
2023-04-16T00:17:04.998Z,99600.78
2023-04-16T00:19:38.391Z,99604.59
2023-04-16T00:22:08.879Z,99602.06
2023-04-16T00:24:39.223Z,99596.81
2023-04-16T00:27:10.026Z,99600.16
2023-04-16T00:29:40.414Z,99613.53
2023-04-16T00:32:11.011Z,99606.84
2023-04-16T00:34:43.998Z,99606.25
2023-04-16T00:37:14.432Z,99604.06
2023-04-16T00:39:44.751Z,99609.31
2023-04-16T00:42:15.381Z,99608.69
2023-04-16T00:44:45.625Z,99602.50
2023-04-16T00:47:16.250Z,99594.94
2023-04-16T00:49:49.551Z,99598.50
2023-04-16T00:52:19.980Z,99596.38
2023-04-16T00:54:52.231Z,99601.09
2023-04-16T00:57:24.336Z,99599.66
2023-04-16T00:59:54.923Z,99601.31
2023-04-16T01:02:25.400Z,99594.19
2023-04-16T01:04:59.042Z,99594.19
2023-04-16T01:07:29.262Z,99595.84
2023-04-16T01:09:59.533Z,99591.44
2023-04-16T01:12:29.756Z,99598.00
2023-04-16T01:15:00.238Z,99599.34
2023-04-16T01:17:30.591Z,99600.59
2023-04-16T01:20:04.454Z,99598.97
2023-04-16T01:22:37.206Z,99601.84
2023-04-16T01:25:09.549Z,99606.88
2023-04-16T01:27:39.950Z,99612.06
2023-04-16T01:30:11.788Z,99603.94
2023-04-16T01:32:42.191Z,99608.84
2023-04-16T01:35:12.757Z,99604.94
2023-04-16T01:37:45.622Z,99600.28
2023-04-16T01:40:16.102Z,99607.09
2023-04-16T01:42:46.448Z,99604.97
2023-04-16T01:45:16.984Z,99610.00
2023-04-16T01:47:47.650Z,99605.22
2023-04-16T01:50:18.372Z,99610.22
2023-04-16T01:52:51.340Z,99622.19
2023-04-16T01:55:23.122Z,99620.53
2023-04-16T01:57:53.997Z,99610.00
2023-04-16T02:00:24.529Z,99607.50
2023-04-16T02:02:55.231Z,99613.81
2023-04-16T02:05:26.150Z,99606.28
2023-04-16T02:07:59.466Z,99605.56
2023-04-16T02:10:29.854Z,99607.84
2023-04-16T02:13:00.240Z,99606.50
2023-04-16T02:15:30.496Z,99604.44
2023-04-16T02:18:01.127Z,99606.34
2023-04-16T02:20:31.547Z,99608.72
2023-04-16T02:23:04.530Z,99615.16
2023-04-16T02:25:34.746Z,99612.13
2023-04-16T02:28:04.971Z,99618.66
2023-04-16T02:30:35.706Z,99616.84
2023-04-16T02:33:07.607Z,99611.19
2023-04-16T02:35:38.432Z,99620.25
2023-04-16T02:38:11.712Z,99623.09
2023-04-16T02:40:42.085Z,99619.38
2023-04-16T02:43:12.507Z,99621.69
2023-04-16T02:45:42.771Z,99626.94
2023-04-16T02:48:13.671Z,99625.59
2023-04-16T02:50:43.976Z,99635.56
2023-04-16T02:53:16.846Z,99628.38
2023-04-16T02:55:53.118Z,99632.88
2023-04-16T02:58:24.459Z,99620.63
2023-04-16T03:00:55.527Z,99636.16
2023-04-16T03:03:27.892Z,99634.78
2023-04-16T03:05:58.365Z,99644.47
2023-04-16T03:08:31.389Z,99633.25
2023-04-16T03:11:01.948Z,99636.28
2023-04-16T03:13:32.196Z,99640.28
2023-04-16T03:16:02.533Z,99636.06
2023-04-16T03:18:32.765Z,99633.56
2023-04-16T03:21:03.507Z,99636.50
2023-04-16T03:23:36.663Z,99631.38
2023-04-16T03:26:06.978Z,99643.03
2023-04-16T03:28:37.260Z,99638.00
2023-04-16T03:31:08.012Z,99645.31
2023-04-16T03:33:41.541Z,99644.69
2023-04-16T03:36:14.760Z,99642.38
2023-04-16T03:38:47.634Z,99642.59
2023-04-16T03:41:17.984Z,99645.44
2023-04-16T03:43:48.430Z,99658.53
2023-04-16T03:46:18.658Z,99660.22
2023-04-16T03:48:49.012Z,99664.94
2023-04-16T03:51:19.836Z,99672.78
2023-04-16T03:53:52.700Z,99681.47
2023-04-16T03:56:22.934Z,99678.13
2023-04-16T03:58:53.193Z,99683.38
2023-04-16T04:01:23.508Z,99679.16
2023-04-16T04:03:54.283Z,99680.84
2023-04-16T04:06:24.719Z,99680.84
2023-04-16T04:08:57.688Z,99681.59
2023-04-16T04:11:28.441Z,99677.19
2023-04-16T04:13:58.905Z,99684.50
2023-04-16T04:16:30.053Z,99684.94
2023-04-16T04:19:00.420Z,99699.50
2023-04-16T04:21:33.837Z,99694.91
2023-04-16T04:24:07.096Z,99694.59
2023-04-16T04:26:37.538Z,99702.25
2023-04-16T04:29:08.042Z,99698.47
2023-04-16T04:31:38.671Z,99692.91
2023-04-16T04:34:08.948Z,99696.81
2023-04-16T04:36:42.135Z,99708.44
2023-04-16T04:39:14.937Z,99712.31
2023-04-16T04:41:45.362Z,99708.22
2023-04-16T04:44:15.711Z,99708.41
2023-04-16T04:46:46.246Z,99702.41
2023-04-16T04:49:16.524Z,99699.75
2023-04-16T04:51:47.016Z,99698.75
2023-04-16T04:54:19.908Z,99700.78
2023-04-16T04:56:50.457Z,99695.81
2023-04-16T04:59:21.157Z,99698.16
2023-04-16T05:01:51.987Z,99708.41
2023-04-16T05:04:22.391Z,99706.00
2023-04-16T05:06:55.104Z,99706.13
2023-04-16T05:09:28.051Z,99705.94
2023-04-16T05:11:58.399Z,99714.09
2023-04-16T05:14:29.263Z,99714.28
2023-04-16T05:16:59.561Z,99711.72
2023-04-16T05:19:29.965Z,99708.19
2023-04-16T05:22:00.252Z,99715.00
2023-04-16T05:24:33.112Z,99722.66
2023-04-16T05:27:03.583Z,99722.78
2023-04-16T05:29:34.033Z,99721.16
2023-04-16T05:32:04.405Z,99714.16
2023-04-16T05:34:35.252Z,99713.00
2023-04-16T05:37:05.603Z,99716.91
2023-04-16T05:39:38.564Z,99667.03
2023-04-16T05:42:09.227Z,99720.56
2023-04-16T05:44:39.560Z,99721.31
2023-04-16T05:47:09.961Z,99722.22
2023-04-16T05:49:40.262Z,99719.13
2023-04-16T05:52:10.694Z,99723.97
2023-04-16T05:54:45.657Z,99726.50
2023-04-16T05:57:16.678Z,99724.06
2023-04-16T05:59:47.332Z,99733.09
2023-04-16T06:02:18.078Z,99727.78
2023-04-16T06:04:49.304Z,99731.66
2023-04-16T06:07:19.611Z,99728.25
2023-04-16T06:09:52.578Z,99723.81
2023-04-16T06:12:22.928Z,99732.16
2023-04-16T06:14:53.221Z,99733.16
2023-04-16T06:17:23.674Z,99731.13
2023-04-16T06:19:54.103Z,99728.59
2023-04-16T06:22:24.563Z,99737.91
2023-04-16T06:24:57.474Z,99737.19
2023-04-16T06:27:27.869Z,99737.28
2023-04-16T06:30:00.214Z,99736.28
2023-04-16T06:32:36.355Z,99736.91
2023-04-16T06:35:07.175Z,99744.06
2023-04-16T06:37:37.684Z,99744.50
2023-04-16T06:40:12.113Z,99739.66
2023-04-16T06:42:44.820Z,99745.91
2023-04-16T06:45:17.359Z,99753.56
2023-04-16T06:47:51.379Z,99756.25
2023-04-16T06:50:22.504Z,99753.06
2023-04-16T06:52:53.179Z,99762.34
2023-04-16T06:55:26.018Z,99757.50
2023-04-16T06:57:56.685Z,99759.22
2023-04-16T07:00:26.889Z,99754.22
2023-04-16T07:02:58.765Z,99757.03
2023-04-16T07:05:29.268Z,99765.66
2023-04-16T07:07:59.877Z,99758.41
2023-04-16T07:10:32.717Z,99761.91
2023-04-16T07:13:04.439Z,99755.22
2023-04-16T07:15:34.954Z,99764.84
2023-04-16T07:18:05.649Z,99767.72
2023-04-16T07:20:36.452Z,99769.56
2023-04-16T07:23:07.536Z,99768.66
2023-04-16T07:25:42.493Z,99765.19
2023-04-16T07:28:13.274Z,99775.78
2023-04-16T07:30:44.097Z,99774.88
2023-04-16T07:33:14.702Z,99776.47
2023-04-16T07:35:45.551Z,99763.09
2023-04-16T07:38:16.567Z,99763.59
2023-04-16T07:40:49.568Z,99758.09
2023-04-16T07:43:19.973Z,99755.66
2023-04-16T07:45:50.249Z,99749.09
2023-04-16T07:48:21.230Z,99739.75
2023-04-16T07:50:51.639Z,99742.09
2023-04-16T07:53:22.173Z,99737.72
2023-04-16T07:55:57.604Z,99747.72
2023-04-16T07:58:28.146Z,99743.50
2023-04-16T08:01:01.665Z,99737.00
2023-04-16T08:03:32.191Z,99739.50
2023-04-16T08:06:02.873Z,99743.97
2023-04-16T08:08:33.508Z,99742.78
2023-04-16T08:11:06.639Z,99738.59
2023-04-16T08:13:37.515Z,99739.69
2023-04-16T08:16:08.628Z,99745.09
2023-04-16T08:18:38.977Z,99746.50
2023-04-16T08:21:09.567Z,99750.72
2023-04-16T08:23:39.818Z,99743.41
2023-04-16T08:26:12.707Z,99747.34
2023-04-16T08:28:43.268Z,99744.06
2023-04-16T08:31:14.214Z,99745.13
2023-04-16T08:33:44.829Z,99741.59
2023-04-16T08:36:15.076Z,99741.84
2023-04-16T08:38:45.535Z,99748.28
2023-04-16T08:41:19.424Z,99744.00
2023-04-16T08:43:53.493Z,99749.22
2023-04-16T08:46:29.019Z,99751.47
2023-04-16T08:49:02.511Z,99753.72
2023-04-16T08:51:33.533Z,99760.03
2023-04-16T08:54:07.228Z,99752.38
2023-04-16T08:56:43.087Z,99753.47
2023-04-16T08:59:13.830Z,99753.47
2023-04-16T09:01:44.662Z,99756.00
2023-04-16T09:04:19.604Z,99770.38
2023-04-16T09:06:51.568Z,99759.25
2023-04-16T09:09:24.263Z,99760.66
2023-04-16T09:11:57.520Z,99761.59
2023-04-16T09:14:28.120Z,99759.69
2023-04-16T09:17:01.434Z,99749.00
2023-04-16T09:19:31.844Z,99763.38
2023-04-16T09:22:06.423Z,99764.63
2023-04-16T09:24:38.792Z,99749.91
2023-04-16T09:27:13.283Z,99756.69
2023-04-16T09:29:44.699Z,99762.69
2023-04-16T09:32:15.318Z,99754.81
2023-04-16T09:35:06.561Z,99753.38
2023-04-16T09:37:38.384Z,99761.16
2023-04-16T09:40:10.705Z,99760.31
2023-04-16T09:42:44.205Z,99759.78
2023-04-16T09:45:14.843Z,99751.81
2023-04-16T09:47:47.948Z,99755.69
2023-04-16T09:50:19.754Z,99765.34
2023-04-16T09:52:52.844Z,99754.81
2023-04-16T09:55:26.652Z,99755.31
2023-04-16T09:58:04.372Z,99756.63
2023-04-16T10:00:43.365Z,99764.66
2023-04-16T10:03:14.285Z,99758.66
2023-04-16T10:05:44.755Z,99749.03
2023-04-16T10:08:16.039Z,99743.72
2023-04-16T10:10:47.456Z,99754.94
2023-04-16T10:13:20.690Z,99752.78
2023-04-16T10:15:52.304Z,99744.38
2023-04-16T10:18:23.800Z,99746.03
2023-04-16T10:20:54.320Z,99741.59
2023-04-16T10:23:25.583Z,99733.94
2023-04-16T10:25:58.772Z,99731.75
2023-04-16T10:28:32.150Z,99730.84
2023-04-16T10:31:04.131Z,99734.56
2023-04-16T10:33:37.335Z,99729.50
2023-04-16T10:36:12.577Z,99729.91
2023-04-16T10:38:43.862Z,99726.63
2023-04-16T10:41:14.323Z,99718.78
2023-04-16T10:43:48.250Z,99717.50
2023-04-16T10:46:23.121Z,99724.97
2023-04-16T10:48:56.298Z,99734.44
2023-04-16T10:51:29.141Z,99723.38
2023-04-16T10:54:00.254Z,99726.47
2023-04-16T10:56:31.713Z,99731.38
2023-04-16T10:59:08.068Z,99730.41
2023-04-16T11:01:40.448Z,99734.50
2023-04-16T11:04:39.922Z,99721.75
2023-04-16T11:07:18.782Z,99722.81
2023-04-16T11:09:57.378Z,99713.84
2023-04-16T11:12:30.225Z,99723.75
2023-04-16T11:15:05.885Z,99724.84
2023-04-16T11:17:40.790Z,99721.44
2023-04-16T11:20:17.774Z,99728.75
2023-04-16T11:22:53.950Z,99720.09
2023-04-16T11:25:25.164Z,99711.53
2023-04-16T11:27:56.329Z,99713.22
2023-04-16T11:30:35.150Z,99700.59
2023-04-16T11:33:08.805Z,99710.09
2023-04-16T11:35:39.546Z,99712.72
2023-04-16T11:38:10.262Z,99711.34
2023-04-16T11:40:41.837Z,99707.38
2023-04-16T11:43:17.786Z,99708.63
2023-04-16T11:46:07.460Z,99704.06
2023-04-16T11:48:51.015Z,99705.13
2023-04-16T11:51:23.621Z,99703.53
2023-04-16T11:53:55.542Z,99709.75
2023-04-16T11:56:30.448Z,99690.13
2023-04-16T11:59:14.481Z,99694.38
2023-04-16T12:01:50.258Z,99689.88
2023-04-16T12:04:24.740Z,99679.78
2023-04-16T12:07:11.565Z,99687.84
2023-04-16T12:09:43.715Z,99684.97
2023-04-16T12:12:31.599Z,99676.97
2023-04-16T12:15:04.097Z,99679.59
2023-04-16T12:17:38.851Z,99680.22
2023-04-16T12:20:13.153Z,99677.78
2023-04-16T12:22:47.494Z,99678.41
2023-04-16T12:25:19.576Z,99674.47
2023-04-16T12:27:53.875Z,99673.75
2023-04-16T12:30:31.077Z,99674.69
2023-04-16T12:33:22.210Z,99668.78
2023-04-16T12:35:52.984Z,99671.41
2023-04-16T12:38:24.665Z,99666.50
2023-04-16T12:40:57.428Z,99659.53
2023-04-16T12:43:28.717Z,99665.53
2023-04-16T12:45:59.352Z,99658.06
2023-04-16T12:48:32.857Z,99653.56
2023-04-16T12:51:03.323Z,99651.13
2023-04-16T12:53:35.867Z,99653.19
2023-04-16T12:56:06.180Z,99640.72
2023-04-16T12:58:36.795Z,99651.16
2023-04-16T13:01:07.264Z,99646.38
2023-04-16T13:03:43.350Z,99645.41
2023-04-16T13:06:13.933Z,99650.13
2023-04-16T13:08:44.405Z,99646.38
2023-04-16T13:11:15.913Z,99638.94
2023-04-16T13:13:46.348Z,99639.50
2023-04-16T13:16:16.691Z,99634.69
2023-04-16T13:18:49.686Z,99631.06
2023-04-16T13:21:21.159Z,99640.56
2023-04-16T13:23:52.016Z,99625.00
2023-04-16T13:26:22.896Z,99627.47
2023-04-16T13:28:53.167Z,99621.09
2023-04-16T13:31:24.043Z,99617.94
2023-04-16T13:33:57.554Z,99621.50
2023-04-16T13:36:28.037Z,99620.66
2023-04-16T13:38:58.333Z,99616.22
2023-04-16T13:41:29.375Z,99614.38
2023-04-16T13:43:59.608Z,99619.50
2023-04-16T13:46:30.075Z,99617.72
2023-04-16T13:49:02.909Z,99613.50
2023-04-16T13:51:33.183Z,99614.63
2023-04-16T13:54:03.920Z,99612.91
2023-04-16T13:56:34.323Z,99612.75
2023-04-16T13:59:05.230Z,99611.41
2023-04-16T14:01:35.622Z,99603.19
2023-04-16T14:04:10.140Z,99600.50
2023-04-16T14:06:40.570Z,99597.22
2023-04-16T14:09:11.610Z,99595.50
2023-04-16T14:11:42.942Z,99592.47
2023-04-16T14:14:13.295Z,99590.72
2023-04-16T14:16:43.676Z,99589.75
2023-04-16T14:19:16.692Z,99592.19
2023-04-16T14:21:47.044Z,99587.28
2023-04-16T14:24:17.553Z,99587.63
2023-04-16T14:26:47.816Z,99590.38
2023-04-16T14:29:18.145Z,99588.31
2023-04-16T14:31:50.434Z,99588.72
2023-04-16T14:34:24.097Z,99578.72
2023-04-16T14:36:54.076Z,99585.22
2023-04-16T14:39:24.508Z,99577.81
2023-04-16T14:41:55.115Z,99580.66
2023-04-16T14:44:25.838Z,99577.78
2023-04-16T14:46:59.059Z,99574.63
2023-04-16T14:49:32.186Z,99567.69
2023-04-16T14:52:05.498Z,99569.53
2023-04-16T14:54:36.317Z,99577.22
2023-04-16T14:57:07.531Z,99571.69
2023-04-16T14:59:37.933Z,99569.34
2023-04-16T15:02:08.499Z,99565.94
2023-04-16T15:04:41.687Z,99544.31
2023-04-16T15:07:12.064Z,99557.91
2023-04-16T15:09:42.360Z,99558.66
2023-04-16T15:12:12.900Z,99564.78
2023-04-16T15:14:43.435Z,99571.56
2023-04-16T15:17:14.093Z,99557.13
2023-04-16T15:19:47.004Z,99558.09
2023-04-16T15:22:17.739Z,99552.69
2023-04-16T15:24:48.091Z,99552.50
2023-04-16T15:27:19.567Z,99554.19
2023-04-16T15:29:50.993Z,99559.16
2023-04-16T15:32:22.368Z,99559.59
2023-04-16T15:34:55.361Z,99559.38
2023-04-16T15:37:25.748Z,99561.91
2023-04-16T15:39:56.886Z,99561.53
2023-04-16T15:42:27.550Z,99566.06
2023-04-16T15:44:57.829Z,99558.59
2023-04-16T15:47:28.231Z,99557.13
2023-04-16T15:50:01.258Z,99561.03
2023-04-16T15:52:31.571Z,99555.09
2023-04-16T15:55:04.079Z,99554.66
2023-04-16T15:57:35.097Z,99554.25
2023-04-16T16:00:13.575Z,99547.69
2023-04-16T16:02:44.796Z,99550.94
2023-04-16T16:05:18.930Z,99556.69
2023-04-16T16:07:50.949Z,99553.75
2023-04-16T16:10:21.298Z,99555.69
2023-04-16T16:12:51.647Z,99546.78
2023-04-16T16:15:22.229Z,99550.88
2023-04-16T16:17:55.852Z,99555.13
2023-04-16T16:20:29.143Z,99552.97
2023-04-16T16:23:00.251Z,99557.69
2023-04-16T16:25:30.665Z,99551.81
2023-04-16T16:28:03.624Z,99550.53
2023-04-16T16:30:36.347Z,99558.50
2023-04-16T16:33:07.353Z,99554.09
2023-04-16T16:35:43.522Z,99565.78
2023-04-16T16:38:13.821Z,99560.00
2023-04-16T16:40:44.976Z,99550.59
2023-04-16T16:43:15.569Z,99557.41
2023-04-16T16:45:47.310Z,99562.78
2023-04-16T16:48:18.043Z,99562.00
2023-04-16T16:50:51.175Z,99566.69
2023-04-16T16:53:28.360Z,99555.53
2023-04-16T16:55:58.603Z,99559.03
2023-04-16T16:58:28.931Z,99569.34
2023-04-16T17:00:59.485Z,99570.91
2023-04-16T17:03:30.249Z,99566.94
2023-04-16T17:06:03.385Z,99571.38
2023-04-16T17:08:33.700Z,99570.91
2023-04-16T17:11:06.351Z,99569.09
2023-04-16T17:13:37.412Z,99574.53
2023-04-16T17:16:08.128Z,99575.47
2023-04-16T17:18:39.727Z,99572.06
2023-04-16T17:21:14.010Z,99577.34
2023-04-16T17:23:45.485Z,99580.63
2023-04-16T17:26:17.375Z,99581.84
2023-04-16T17:28:47.829Z,99579.88
2023-04-16T17:31:18.536Z,99583.81
2023-04-16T17:33:49.277Z,99584.44
2023-04-16T17:36:30.729Z,99575.03
2023-04-16T17:39:01.229Z,99583.66
2023-04-16T17:41:31.543Z,99588.59
2023-04-16T17:44:02.302Z,99596.53
2023-04-16T17:46:32.583Z,99591.16
2023-04-16T17:49:04.354Z,99583.75
2023-04-16T17:51:40.113Z,99593.13
2023-04-16T17:54:10.633Z,99596.19
2023-04-16T17:56:41.122Z,99602.91
2023-04-16T17:59:11.689Z,99602.09
2023-04-16T18:01:42.500Z,99604.66
2023-04-16T18:04:13.734Z,99607.00
2023-04-16T18:06:47.025Z,99598.38
2023-04-16T18:09:17.573Z,99600.53
2023-04-16T18:11:48.062Z,99610.06
2023-04-16T18:14:20.652Z,99597.75
2023-04-16T18:16:51.128Z,99607.41
2023-04-16T18:19:22.350Z,99602.06
2023-04-16T18:21:55.223Z,99606.06
2023-04-16T18:24:25.701Z,99603.63
2023-04-16T18:26:56.942Z,99615.09
2023-04-16T18:29:30.234Z,99612.09
2023-04-16T18:32:03.726Z,99606.66
2023-04-16T18:34:37.843Z,99609.63
2023-04-16T18:37:10.849Z,99614.31
2023-04-16T18:39:42.134Z,99601.31
2023-04-16T18:42:14.520Z,99612.97
2023-04-16T18:44:47.078Z,99603.97
2023-04-16T18:47:17.441Z,99601.16
2023-04-16T18:49:48.471Z,99601.81
2023-04-16T18:52:22.244Z,99601.81
2023-04-16T18:54:52.655Z,99602.00
2023-04-16T18:57:22.970Z,99606.66
2023-04-16T18:59:54.654Z,99605.16
2023-04-16T19:02:25.009Z,99602.81
2023-04-16T19:04:55.699Z,99599.16
2023-04-16T19:07:28.661Z,99582.88
2023-04-16T19:10:00.276Z,99582.22
2023-04-16T19:12:31.556Z,99602.81
2023-04-16T19:15:04.159Z,99606.16
2023-04-16T19:17:34.604Z,99598.81
2023-04-16T19:20:09.119Z,99598.50
2023-04-16T19:22:43.697Z,99590.13
2023-04-16T19:25:14.094Z,99590.31
2023-04-16T19:27:44.308Z,99594.97
2023-04-16T19:30:15.055Z,99586.63
2023-04-16T19:32:45.397Z,99582.66
2023-04-16T19:41:16.206Z,99578.19
2023-04-16T19:43:46.513Z,99580.03
2023-04-16T19:46:16.980Z,99567.56
2023-04-16T19:48:48.790Z,99565.59
